sensor_id;sensor_type;location;lat;lon;timestamp;temperature;humidity
3860;DHT22;1945;52.036;8.614;2022-12-18T00:02:04;-8.70;1.00
3860;DHT22;1945;52.036;8.614;2022-12-18T00:04:31;-8.80;1.00
3860;DHT22;1945;52.036;8.614;2022-12-18T00:06:57;-8.50;1.00
3860;DHT22;1945;52.036;8.614;2022-12-18T00:09:24;-8.10;1.00
3860;DHT22;1945;52.036;8.614;2022-12-18T00:11:51;-8.20;1.00
3860;DHT22;1945;52.036;8.614;2022-12-18T00:14:18;-8.20;1.00
3860;DHT22;1945;52.036;8.614;2022-12-18T00:16:45;-8.50;1.00
3860;DHT22;1945;52.036;8.614;2022-12-18T00:19:14;-8.20;1.00
3860;DHT22;1945;52.036;8.614;2022-12-18T00:21:42;-8.10;1.00
3860;DHT22;1945;52.036;8.614;2022-12-18T00:24:10;-8.00;54.10
3860;DHT22;1945;52.036;8.614;2022-12-18T00:26:38;-8.80;99.90
3860;DHT22;1945;52.036;8.614;2022-12-18T00:29:06;-7.70;99.90
3860;DHT22;1945;52.036;8.614;2022-12-18T00:31:33;-7.50;99.90
3860;DHT22;1945;52.036;8.614;2022-12-18T00:34:00;-7.60;99.90
3860;DHT22;1945;52.036;8.614;2022-12-18T00:36:31;-7.60;99.90
3860;DHT22;1945;52.036;8.614;2022-12-18T00:38:59;-7.60;99.90
3860;DHT22;1945;52.036;8.614;2022-12-18T00:41:27;-7.50;99.90
3860;DHT22;1945;52.036;8.614;2022-12-18T00:44:14;-7.50;99.90
3860;DHT22;1945;52.036;8.614;2022-12-18T00:46:41;-7.50;99.90
3860;DHT22;1945;52.036;8.614;2022-12-18T00:49:08;-7.50;99.90
3860;DHT22;1945;52.036;8.614;2022-12-18T00:51:39;-7.60;99.90
3860;DHT22;1945;52.036;8.614;2022-12-18T00:54:06;-7.70;99.90
3860;DHT22;1945;52.036;8.614;2022-12-18T00:56:35;-7.90;99.90
3860;DHT22;1945;52.036;8.614;2022-12-18T00:59:02;-8.00;95.70
3860;DHT22;1945;52.036;8.614;2022-12-18T01:01:29;-7.90;99.90
3860;DHT22;1945;52.036;8.614;2022-12-18T01:03:56;-7.80;99.90
3860;DHT22;1945;52.036;8.614;2022-12-18T01:06:22;-7.70;99.90
3860;DHT22;1945;52.036;8.614;2022-12-18T01:08:51;-7.80;99.90
3860;DHT22;1945;52.036;8.614;2022-12-18T01:11:19;-7.60;99.90
3860;DHT22;1945;52.036;8.614;2022-12-18T01:13:46;-8.20;99.90
3860;DHT22;1945;52.036;8.614;2022-12-18T01:16:13;-7.60;99.90
3860;DHT22;1945;52.036;8.614;2022-12-18T01:18:40;-7.50;99.90
3860;DHT22;1945;52.036;8.614;2022-12-18T01:21:08;-7.60;99.90
3860;DHT22;1945;52.036;8.614;2022-12-18T01:23:35;-7.40;99.90
3860;DHT22;1945;52.036;8.614;2022-12-18T01:26:08;-7.90;99.90
3860;DHT22;1945;52.036;8.614;2022-12-18T01:28:35;-7.70;99.90
3860;DHT22;1945;52.036;8.614;2022-12-18T01:31:13;-7.60;99.90
3860;DHT22;1945;52.036;8.614;2022-12-18T01:33:41;-7.50;99.90
3860;DHT22;1945;52.036;8.614;2022-12-18T01:36:13;-7.40;99.90
3860;DHT22;1945;52.036;8.614;2022-12-18T01:38:40;-7.90;99.90
3860;DHT22;1945;52.036;8.614;2022-12-18T01:41:09;-8.00;99.90
3860;DHT22;1945;52.036;8.614;2022-12-18T01:43:44;-8.00;99.90
3860;DHT22;1945;52.036;8.614;2022-12-18T01:46:11;-7.80;99.90
3860;DHT22;1945;52.036;8.614;2022-12-18T01:48:39;-7.50;99.90
3860;DHT22;1945;52.036;8.614;2022-12-18T01:51:08;-7.50;99.90
3860;DHT22;1945;52.036;8.614;2022-12-18T01:53:36;-7.60;99.90
3860;DHT22;1945;52.036;8.614;2022-12-18T01:56:03;-7.60;91.80
3860;DHT22;1945;52.036;8.614;2022-12-18T01:58:37;-7.60;71.40
3860;DHT22;1945;52.036;8.614;2022-12-18T02:01:06;-7.70;90.00
3860;DHT22;1945;52.036;8.614;2022-12-18T02:03:32;-7.80;1.00
3860;DHT22;1945;52.036;8.614;2022-12-18T02:06:03;-8.80;1.00
3860;DHT22;1945;52.036;8.614;2022-12-18T02:08:35;-8.20;1.00
3860;DHT22;1945;52.036;8.614;2022-12-18T02:11:07;-8.10;1.00
3860;DHT22;1945;52.036;8.614;2022-12-18T02:13:42;-8.00;1.00
3860;DHT22;1945;52.036;8.614;2022-12-18T02:16:19;-8.10;1.00
3860;DHT22;1945;52.036;8.614;2022-12-18T02:18:50;-8.20;1.00
3860;DHT22;1945;52.036;8.614;2022-12-18T02:21:27;-8.20;1.00
3860;DHT22;1945;52.036;8.614;2022-12-18T02:23:59;-8.20;1.00
3860;DHT22;1945;52.036;8.614;2022-12-18T02:26:34;-8.50;1.00
3860;DHT22;1945;52.036;8.614;2022-12-18T02:29:05;-8.20;1.00
3860;DHT22;1945;52.036;8.614;2022-12-18T02:31:38;-8.80;1.00
3860;DHT22;1945;52.036;8.614;2022-12-18T02:34:07;-8.30;1.00
3860;DHT22;1945;52.036;8.614;2022-12-18T02:36:38;-8.20;1.00
3860;DHT22;1945;52.036;8.614;2022-12-18T02:39:07;-8.70;1.00
3860;DHT22;1945;52.036;8.614;2022-12-18T02:41:37;-8.40;1.00
3860;DHT22;1945;52.036;8.614;2022-12-18T02:44:08;-9.00;1.00
3860;DHT22;1945;52.036;8.614;2022-12-18T02:46:37;-8.70;1.00
3860;DHT22;1945;52.036;8.614;2022-12-18T02:49:15;-8.80;1.00
3860;DHT22;1945;52.036;8.614;2022-12-18T02:51:50;-9.10;1.00
3860;DHT22;1945;52.036;8.614;2022-12-18T02:54:29;-8.50;1.00
3860;DHT22;1945;52.036;8.614;2022-12-18T02:57:08;-8.70;1.00
3860;DHT22;1945;52.036;8.614;2022-12-18T02:59:41;-8.40;1.00
3860;DHT22;1945;52.036;8.614;2022-12-18T03:02:19;-8.60;1.00
3860;DHT22;1945;52.036;8.614;2022-12-18T03:04:50;-9.10;1.00
3860;DHT22;1945;52.036;8.614;2022-12-18T03:07:26;-8.60;1.00
3860;DHT22;1945;52.036;8.614;2022-12-18T03:09:54;-9.30;1.00
3860;DHT22;1945;52.036;8.614;2022-12-18T03:12:27;-9.00;1.00
3860;DHT22;1945;52.036;8.614;2022-12-18T03:14:59;-9.20;1.00
3860;DHT22;1945;52.036;8.614;2022-12-18T03:17:29;-9.40;1.00
3860;DHT22;1945;52.036;8.614;2022-12-18T03:19:58;-9.30;1.00
3860;DHT22;1945;52.036;8.614;2022-12-18T03:22:27;-9.20;1.00
3860;DHT22;1945;52.036;8.614;2022-12-18T03:24:56;-8.90;1.00
3860;DHT22;1945;52.036;8.614;2022-12-18T03:27:26;-8.80;1.00
3860;DHT22;1945;52.036;8.614;2022-12-18T03:30:00;-9.20;1.00
3860;DHT22;1945;52.036;8.614;2022-12-18T03:32:35;-9.30;1.00
3860;DHT22;1945;52.036;8.614;2022-12-18T03:35:07;-9.30;1.00
3860;DHT22;1945;52.036;8.614;2022-12-18T03:37:35;-9.00;1.00
3860;DHT22;1945;52.036;8.614;2022-12-18T03:40:02;-9.00;1.00
3860;DHT22;1945;52.036;8.614;2022-12-18T03:42:35;-9.30;1.00
3860;DHT22;1945;52.036;8.614;2022-12-18T03:45:09;-9.50;1.00
3860;DHT22;1945;52.036;8.614;2022-12-18T03:47:40;-9.60;1.00
3860;DHT22;1945;52.036;8.614;2022-12-18T03:50:12;-9.10;1.00
3860;DHT22;1945;52.036;8.614;2022-12-18T03:52:44;-9.30;1.00
3860;DHT22;1945;52.036;8.614;2022-12-18T03:55:12;-10.00;1.00
3860;DHT22;1945;52.036;8.614;2022-12-18T03:57:42;-9.50;1.00
3860;DHT22;1945;52.036;8.614;2022-12-18T04:00:12;-9.50;1.00
3860;DHT22;1945;52.036;8.614;2022-12-18T04:02:43;-9.50;1.00
3860;DHT22;1945;52.036;8.614;2022-12-18T04:05:11;-9.40;1.00
3860;DHT22;1945;52.036;8.614;2022-12-18T04:07:40;-9.50;1.00
3860;DHT22;1945;52.036;8.614;2022-12-18T04:10:08;-9.10;1.00
3860;DHT22;1945;52.036;8.614;2022-12-18T04:12:37;-9.60;1.00
3860;DHT22;1945;52.036;8.614;2022-12-18T04:15:06;-9.80;1.00
3860;DHT22;1945;52.036;8.614;2022-12-18T04:17:33;-9.80;1.00
3860;DHT22;1945;52.036;8.614;2022-12-18T04:20:00;-9.70;1.00
3860;DHT22;1945;52.036;8.614;2022-12-18T04:22:27;-9.80;1.00
3860;DHT22;1945;52.036;8.614;2022-12-18T04:24:54;-9.80;1.00
3860;DHT22;1945;52.036;8.614;2022-12-18T04:27:20;-9.90;1.00
3860;DHT22;1945;52.036;8.614;2022-12-18T04:29:47;-9.80;1.00
3860;DHT22;1945;52.036;8.614;2022-12-18T04:32:15;-9.30;1.00
3860;DHT22;1945;52.036;8.614;2022-12-18T04:34:42;-9.80;1.00
3860;DHT22;1945;52.036;8.614;2022-12-18T04:37:09;-9.30;1.00
3860;DHT22;1945;52.036;8.614;2022-12-18T04:39:36;-9.90;1.00
3860;DHT22;1945;52.036;8.614;2022-12-18T04:42:03;-9.70;1.00
3860;DHT22;1945;52.036;8.614;2022-12-18T04:44:30;-9.70;1.00
3860;DHT22;1945;52.036;8.614;2022-12-18T04:46:57;-10.10;1.00
3860;DHT22;1945;52.036;8.614;2022-12-18T04:49:25;-9.80;1.00
3860;DHT22;1945;52.036;8.614;2022-12-18T04:51:51;-9.80;99.90
3860;DHT22;1945;52.036;8.614;2022-12-18T04:54:20;-9.80;99.90
3860;DHT22;1945;52.036;8.614;2022-12-18T04:56:47;-9.90;99.90
3860;DHT22;1945;52.036;8.614;2022-12-18T04:59:13;-10.00;99.90
3860;DHT22;1945;52.036;8.614;2022-12-18T05:01:40;-10.00;99.90
3860;DHT22;1945;52.036;8.614;2022-12-18T05:04:07;-9.90;99.90
3860;DHT22;1945;52.036;8.614;2022-12-18T05:06:35;-10.60;99.90
3860;DHT22;1945;52.036;8.614;2022-12-18T05:09:02;-10.00;99.90
3860;DHT22;1945;52.036;8.614;2022-12-18T05:11:29;-10.60;99.90
3860;DHT22;1945;52.036;8.614;2022-12-18T05:13:56;-10.70;99.90
3860;DHT22;1945;52.036;8.614;2022-12-18T05:16:23;-10.00;99.90
3860;DHT22;1945;52.036;8.614;2022-12-18T05:18:49;-9.90;99.90
3860;DHT22;1945;52.036;8.614;2022-12-18T05:21:16;-9.90;99.90
3860;DHT22;1945;52.036;8.614;2022-12-18T05:23:44;-9.80;99.90
3860;DHT22;1945;52.036;8.614;2022-12-18T05:26:15;-10.10;99.90
3860;DHT22;1945;52.036;8.614;2022-12-18T05:28:42;-9.90;99.90
3860;DHT22;1945;52.036;8.614;2022-12-18T05:31:09;-10.30;99.90
3860;DHT22;1945;52.036;8.614;2022-12-18T05:33:36;-10.30;99.90
3860;DHT22;1945;52.036;8.614;2022-12-18T05:36:05;-10.10;99.90
3860;DHT22;1945;52.036;8.614;2022-12-18T05:38:33;-10.40;99.90
3860;DHT22;1945;52.036;8.614;2022-12-18T05:41:02;-10.00;99.90
3860;DHT22;1945;52.036;8.614;2022-12-18T05:43:29;-10.30;99.90
3860;DHT22;1945;52.036;8.614;2022-12-18T05:45:55;-10.20;99.90
3860;DHT22;1945;52.036;8.614;2022-12-18T05:48:23;-9.80;99.90
3860;DHT22;1945;52.036;8.614;2022-12-18T05:50:50;-10.20;99.90
3860;DHT22;1945;52.036;8.614;2022-12-18T05:53:19;-10.40;99.90
3860;DHT22;1945;52.036;8.614;2022-12-18T05:55:46;-10.40;99.90
3860;DHT22;1945;52.036;8.614;2022-12-18T05:58:15;-10.10;99.90
3860;DHT22;1945;52.036;8.614;2022-12-18T06:00:44;-10.00;99.90
3860;DHT22;1945;52.036;8.614;2022-12-18T06:03:12;-10.90;99.90
3860;DHT22;1945;52.036;8.614;2022-12-18T06:05:41;-9.80;99.90
3860;DHT22;1945;52.036;8.614;2022-12-18T06:08:09;-10.30;99.90
3860;DHT22;1945;52.036;8.614;2022-12-18T06:10:36;-10.30;99.90
3860;DHT22;1945;52.036;8.614;2022-12-18T06:13:03;-10.30;99.90
3860;DHT22;1945;52.036;8.614;2022-12-18T06:15:31;-10.10;99.90
3860;DHT22;1945;52.036;8.614;2022-12-18T06:17:59;-10.80;99.90
3860;DHT22;1945;52.036;8.614;2022-12-18T06:20:26;-10.30;99.90
3860;DHT22;1945;52.036;8.614;2022-12-18T06:22:53;-10.20;99.90
3860;DHT22;1945;52.036;8.614;2022-12-18T06:25:20;-10.20;99.90
3860;DHT22;1945;52.036;8.614;2022-12-18T06:27:47;-10.60;99.90
3860;DHT22;1945;52.036;8.614;2022-12-18T06:30:14;-10.20;99.90
3860;DHT22;1945;52.036;8.614;2022-12-18T06:32:42;-10.10;99.90
3860;DHT22;1945;52.036;8.614;2022-12-18T06:35:10;-10.50;99.90
3860;DHT22;1945;52.036;8.614;2022-12-18T06:37:36;-10.30;99.90
3860;DHT22;1945;52.036;8.614;2022-12-18T06:40:04;-10.20;99.90
3860;DHT22;1945;52.036;8.614;2022-12-18T06:42:31;-10.40;1.00
3860;DHT22;1945;52.036;8.614;2022-12-18T06:44:58;-10.00;1.00
3860;DHT22;1945;52.036;8.614;2022-12-18T06:47:24;-10.40;1.00
3860;DHT22;1945;52.036;8.614;2022-12-18T06:49:52;-10.10;1.00
3860;DHT22;1945;52.036;8.614;2022-12-18T06:52:19;-10.10;1.00
3860;DHT22;1945;52.036;8.614;2022-12-18T06:54:46;-9.90;1.00
3860;DHT22;1945;52.036;8.614;2022-12-18T06:57:13;-10.30;1.00
3860;DHT22;1945;52.036;8.614;2022-12-18T06:59:39;-10.30;1.00
3860;DHT22;1945;52.036;8.614;2022-12-18T07:02:09;-9.90;1.00
3860;DHT22;1945;52.036;8.614;2022-12-18T07:04:37;-9.90;1.00
3860;DHT22;1945;52.036;8.614;2022-12-18T07:07:05;-10.60;1.00
3860;DHT22;1945;52.036;8.614;2022-12-18T07:09:32;-10.90;1.00
3860;DHT22;1945;52.036;8.614;2022-12-18T07:11:58;-10.00;1.00
3860;DHT22;1945;52.036;8.614;2022-12-18T07:14:25;-10.50;1.00
3860;DHT22;1945;52.036;8.614;2022-12-18T07:16:52;-10.40;1.00
3860;DHT22;1945;52.036;8.614;2022-12-18T07:19:19;-10.80;1.00
3860;DHT22;1945;52.036;8.614;2022-12-18T07:21:45;-10.10;1.00
3860;DHT22;1945;52.036;8.614;2022-12-18T07:24:13;-10.00;1.00
3860;DHT22;1945;52.036;8.614;2022-12-18T07:26:40;-10.30;1.00
3860;DHT22;1945;52.036;8.614;2022-12-18T07:29:07;-9.80;1.00
3860;DHT22;1945;52.036;8.614;2022-12-18T07:31:34;-10.00;1.00
3860;DHT22;1945;52.036;8.614;2022-12-18T07:34:01;-10.30;1.00
3860;DHT22;1945;52.036;8.614;2022-12-18T07:36:27;-9.90;1.00
3860;DHT22;1945;52.036;8.614;2022-12-18T07:38:54;-10.00;1.00
3860;DHT22;1945;52.036;8.614;2022-12-18T07:41:22;-10.10;1.00
3860;DHT22;1945;52.036;8.614;2022-12-18T07:43:49;-10.10;1.00
3860;DHT22;1945;52.036;8.614;2022-12-18T07:46:16;-9.70;1.00
3860;DHT22;1945;52.036;8.614;2022-12-18T07:48:43;-9.60;1.00
3860;DHT22;1945;52.036;8.614;2022-12-18T07:51:12;-9.50;1.00
3860;DHT22;1945;52.036;8.614;2022-12-18T07:53:39;-9.40;1.00
3860;DHT22;1945;52.036;8.614;2022-12-18T07:56:08;-9.30;1.00
3860;DHT22;1945;52.036;8.614;2022-12-18T07:58:37;-9.30;37.70
3860;DHT22;1945;52.036;8.614;2022-12-18T08:01:05;-9.00;15.10
3860;DHT22;1945;52.036;8.614;2022-12-18T08:03:32;-9.40;2.20
3860;DHT22;1945;52.036;8.614;2022-12-18T08:06:00;-9.40;1.00
3860;DHT22;1945;52.036;8.614;2022-12-18T08:08:27;-9.30;68.60
3860;DHT22;1945;52.036;8.614;2022-12-18T08:10:54;-8.80;97.50
3860;DHT22;1945;52.036;8.614;2022-12-18T08:13:21;-9.10;94.80
3860;DHT22;1945;52.036;8.614;2022-12-18T08:15:57;-8.90;99.90
3860;DHT22;1945;52.036;8.614;2022-12-18T08:18:24;-8.80;89.30
3860;DHT22;1945;52.036;8.614;2022-12-18T08:20:51;-9.30;26.30
3860;DHT22;1945;52.036;8.614;2022-12-18T08:23:18;-9.80;44.70
3860;DHT22;1945;52.036;8.614;2022-12-18T08:25:46;-9.00;66.80
3860;DHT22;1945;52.036;8.614;2022-12-18T08:28:13;-9.10;55.80
3860;DHT22;1945;52.036;8.614;2022-12-18T08:30:39;-9.00;56.70
3860;DHT22;1945;52.036;8.614;2022-12-18T08:33:09;-9.50;94.20
3860;DHT22;1945;52.036;8.614;2022-12-18T08:35:36;-8.90;91.30
3860;DHT22;1945;52.036;8.614;2022-12-18T08:38:03;-8.50;99.90
3860;DHT22;1945;52.036;8.614;2022-12-18T08:40:30;-8.30;99.90
3860;DHT22;1945;52.036;8.614;2022-12-18T08:42:56;-8.30;99.90
3860;DHT22;1945;52.036;8.614;2022-12-18T08:45:41;-8.60;99.90
3860;DHT22;1945;52.036;8.614;2022-12-18T08:48:09;-7.90;99.90
3860;DHT22;1945;52.036;8.614;2022-12-18T08:50:36;-7.70;99.90
3860;DHT22;1945;52.036;8.614;2022-12-18T08:53:03;-8.10;99.90
3860;DHT22;1945;52.036;8.614;2022-12-18T08:55:30;-7.60;99.90
3860;DHT22;1945;52.036;8.614;2022-12-18T08:57:57;-8.20;99.90
3860;DHT22;1945;52.036;8.614;2022-12-18T09:00:23;-7.90;99.90
3860;DHT22;1945;52.036;8.614;2022-12-18T09:02:50;-7.40;99.90
3860;DHT22;1945;52.036;8.614;2022-12-18T09:05:18;-7.40;99.90
3860;DHT22;1945;52.036;8.614;2022-12-18T09:07:45;-7.20;99.90
3860;DHT22;1945;52.036;8.614;2022-12-18T09:10:12;-7.10;99.90
3860;DHT22;1945;52.036;8.614;2022-12-18T09:12:38;-7.20;99.90
3860;DHT22;1945;52.036;8.614;2022-12-18T09:15:06;-6.70;99.90
3860;DHT22;1945;52.036;8.614;2022-12-18T09:17:33;-7.30;99.90
3860;DHT22;1945;52.036;8.614;2022-12-18T09:19:59;-6.60;99.90
3860;DHT22;1945;52.036;8.614;2022-12-18T09:22:28;-6.60;99.90
3860;DHT22;1945;52.036;8.614;2022-12-18T09:24:54;-6.50;99.90
3860;DHT22;1945;52.036;8.614;2022-12-18T09:27:21;-6.40;99.90
3860;DHT22;1945;52.036;8.614;2022-12-18T09:29:48;-6.10;99.90
3860;DHT22;1945;52.036;8.614;2022-12-18T09:32:15;-6.60;99.90
3860;DHT22;1945;52.036;8.614;2022-12-18T09:34:41;-6.90;99.90
3860;DHT22;1945;52.036;8.614;2022-12-18T09:37:08;-5.60;99.90
3860;DHT22;1945;52.036;8.614;2022-12-18T09:39:37;-6.10;99.90
3860;DHT22;1945;52.036;8.614;2022-12-18T09:42:04;-6.10;99.90
3860;DHT22;1945;52.036;8.614;2022-12-18T09:44:36;-5.30;99.90
3860;DHT22;1945;52.036;8.614;2022-12-18T09:47:09;-5.30;99.90
3860;DHT22;1945;52.036;8.614;2022-12-18T09:49:41;-5.20;99.90
3860;DHT22;1945;52.036;8.614;2022-12-18T09:52:16;-5.20;99.90
3860;DHT22;1945;52.036;8.614;2022-12-18T09:54:49;-5.60;99.90
3860;DHT22;1945;52.036;8.614;2022-12-18T09:57:19;-4.90;99.90
3860;DHT22;1945;52.036;8.614;2022-12-18T09:59:50;-4.80;99.90
3860;DHT22;1945;52.036;8.614;2022-12-18T10:02:20;-5.10;99.90
3860;DHT22;1945;52.036;8.614;2022-12-18T10:04:59;-4.90;99.90
3860;DHT22;1945;52.036;8.614;2022-12-18T10:07:36;-4.90;99.90
3860;DHT22;1945;52.036;8.614;2022-12-18T10:10:10;-4.20;99.90
3860;DHT22;1945;52.036;8.614;2022-12-18T10:12:44;-4.20;99.90
3860;DHT22;1945;52.036;8.614;2022-12-18T10:15:21;-4.00;99.90
3860;DHT22;1945;52.036;8.614;2022-12-18T10:17:55;-3.90;99.90
3860;DHT22;1945;52.036;8.614;2022-12-18T10:20:30;-3.80;99.90
3860;DHT22;1945;52.036;8.614;2022-12-18T10:23:08;-4.20;95.70
3860;DHT22;1945;52.036;8.614;2022-12-18T10:25:53;-3.60;24.50
3860;DHT22;1945;52.036;8.614;2022-12-18T10:28:22;-3.50;1.00
3860;DHT22;1945;52.036;8.614;2022-12-18T10:30:49;-3.90;1.00
3860;DHT22;1945;52.036;8.614;2022-12-18T10:33:18;-3.20;1.00
3860;DHT22;1945;52.036;8.614;2022-12-18T10:35:45;-3.50;1.00
3860;DHT22;1945;52.036;8.614;2022-12-18T10:38:24;-3.00;1.00
3860;DHT22;1945;52.036;8.614;2022-12-18T10:40:54;-3.00;1.00
3860;DHT22;1945;52.036;8.614;2022-12-18T10:43:24;-2.70;1.00
3860;DHT22;1945;52.036;8.614;2022-12-18T10:46:04;-2.70;99.90
3860;DHT22;1945;52.036;8.614;2022-12-18T10:48:34;-2.30;99.90
3860;DHT22;1945;52.036;8.614;2022-12-18T10:51:02;-2.50;99.90
3860;DHT22;1945;52.036;8.614;2022-12-18T10:53:31;-3.00;99.90
3860;DHT22;1945;52.036;8.614;2022-12-18T10:55:59;-2.40;99.90
3860;DHT22;1945;52.036;8.614;2022-12-18T10:58:28;-2.50;99.90
3860;DHT22;1945;52.036;8.614;2022-12-18T11:01:10;-2.40;93.30
3860;DHT22;1945;52.036;8.614;2022-12-18T11:03:38;-2.40;88.00
3860;DHT22;1945;52.036;8.614;2022-12-18T11:06:08;-2.30;99.90
3860;DHT22;1945;52.036;8.614;2022-12-18T11:08:35;-2.30;99.90
3860;DHT22;1945;52.036;8.614;2022-12-18T11:11:07;-2.40;80.30
3860;DHT22;1945;52.036;8.614;2022-12-18T11:13:51;-2.20;77.90
3860;DHT22;1945;52.036;8.614;2022-12-18T11:16:20;-2.20;22.10
3860;DHT22;1945;52.036;8.614;2022-12-18T11:18:47;-2.10;1.00
3860;DHT22;1945;52.036;8.614;2022-12-18T11:21:14;-2.00;1.00
3860;DHT22;1945;52.036;8.614;2022-12-18T11:23:46;-2.10;1.00
3860;DHT22;1945;52.036;8.614;2022-12-18T11:26:15;-2.00;1.00
3860;DHT22;1945;52.036;8.614;2022-12-18T11:28:45;-2.90;1.00
3860;DHT22;1945;52.036;8.614;2022-12-18T11:31:22;-2.60;1.00
3860;DHT22;1945;52.036;8.614;2022-12-18T11:34:02;-2.40;1.00
3860;DHT22;1945;52.036;8.614;2022-12-18T11:36:34;-1.90;1.00
3860;DHT22;1945;52.036;8.614;2022-12-18T11:39:17;-2.00;1.00
3860;DHT22;1945;52.036;8.614;2022-12-18T11:41:52;-1.90;1.00
3860;DHT22;1945;52.036;8.614;2022-12-18T11:44:45;-1.90;1.00
3860;DHT22;1945;52.036;8.614;2022-12-18T11:47:19;-1.90;1.00
3860;DHT22;1945;52.036;8.614;2022-12-18T11:49:49;-1.90;1.00
3860;DHT22;1945;52.036;8.614;2022-12-18T11:52:19;-1.90;1.00
3860;DHT22;1945;52.036;8.614;2022-12-18T11:54:47;-1.80;1.00
3860;DHT22;1945;52.036;8.614;2022-12-18T11:57:28;-1.70;1.00
3860;DHT22;1945;52.036;8.614;2022-12-18T12:00:03;-1.60;1.00
3860;DHT22;1945;52.036;8.614;2022-12-18T12:03:00;-2.20;1.00
3860;DHT22;1945;52.036;8.614;2022-12-18T12:05:44;-2.10;1.00
3860;DHT22;1945;52.036;8.614;2022-12-18T12:08:20;-1.30;1.00
3860;DHT22;1945;52.036;8.614;2022-12-18T12:10:57;-1.50;1.00
3860;DHT22;1945;52.036;8.614;2022-12-18T12:13:40;-1.80;1.00
3860;DHT22;1945;52.036;8.614;2022-12-18T12:16:17;-1.60;1.00
3860;DHT22;1945;52.036;8.614;2022-12-18T12:19:00;-1.40;1.00
3860;DHT22;1945;52.036;8.614;2022-12-18T12:21:35;-1.30;1.00
3860;DHT22;1945;52.036;8.614;2022-12-18T12:24:15;-1.30;1.00
3860;DHT22;1945;52.036;8.614;2022-12-18T12:26:54;-1.30;1.00
3860;DHT22;1945;52.036;8.614;2022-12-18T12:29:37;-1.30;1.00
3860;DHT22;1945;52.036;8.614;2022-12-18T12:32:17;-1.40;1.00
3860;DHT22;1945;52.036;8.614;2022-12-18T12:34:58;-1.80;1.00
3860;DHT22;1945;52.036;8.614;2022-12-18T12:37:38;-1.30;1.00
3860;DHT22;1945;52.036;8.614;2022-12-18T12:40:12;-1.10;99.90
3860;DHT22;1945;52.036;8.614;2022-12-18T12:42:44;-1.20;99.90
3860;DHT22;1945;52.036;8.614;2022-12-18T12:45:36;-1.10;99.90
3860;DHT22;1945;52.036;8.614;2022-12-18T12:48:06;-1.10;99.90
3860;DHT22;1945;52.036;8.614;2022-12-18T12:50:37;-1.10;99.90
3860;DHT22;1945;52.036;8.614;2022-12-18T12:53:08;-1.60;99.90
3860;DHT22;1945;52.036;8.614;2022-12-18T12:55:39;-1.60;99.90
3860;DHT22;1945;52.036;8.614;2022-12-18T12:58:16;-1.10;99.90
3860;DHT22;1945;52.036;8.614;2022-12-18T13:00:53;-1.60;99.90
3860;DHT22;1945;52.036;8.614;2022-12-18T13:03:30;-1.10;99.90
3860;DHT22;1945;52.036;8.614;2022-12-18T13:06:02;-1.10;99.90
3860;DHT22;1945;52.036;8.614;2022-12-18T13:08:33;-1.00;99.90
3860;DHT22;1945;52.036;8.614;2022-12-18T13:11:30;-1.00;99.90
3860;DHT22;1945;52.036;8.614;2022-12-18T13:14:21;-1.00;99.90
3860;DHT22;1945;52.036;8.614;2022-12-18T13:16:50;-1.00;99.90
3860;DHT22;1945;52.036;8.614;2022-12-18T13:19:22;-1.00;99.90
3860;DHT22;1945;52.036;8.614;2022-12-18T13:21:55;-1.10;99.90
3860;DHT22;1945;52.036;8.614;2022-12-18T13:24:25;-1.00;99.90
3860;DHT22;1945;52.036;8.614;2022-12-18T13:26:53;-0.90;99.90
3860;DHT22;1945;52.036;8.614;2022-12-18T13:29:41;-1.00;99.90
3860;DHT22;1945;52.036;8.614;2022-12-18T13:32:23;-1.40;99.90
3860;DHT22;1945;52.036;8.614;2022-12-18T13:38:21;-1.40;99.90
3860;DHT22;1945;52.036;8.614;2022-12-18T13:40:57;-1.40;99.90
3860;DHT22;1945;52.036;8.614;2022-12-18T13:43:31;-1.30;99.90
3860;DHT22;1945;52.036;8.614;2022-12-18T13:46:19;-0.80;99.90
3860;DHT22;1945;52.036;8.614;2022-12-18T13:48:57;-1.30;99.90
3860;DHT22;1945;52.036;8.614;2022-12-18T13:51:26;-1.30;99.90
3860;DHT22;1945;52.036;8.614;2022-12-18T13:53:56;-0.80;99.90
3860;DHT22;1945;52.036;8.614;2022-12-18T13:56:25;-1.40;99.90
3860;DHT22;1945;52.036;8.614;2022-12-18T13:59:13;-0.80;99.90
3860;DHT22;1945;52.036;8.614;2022-12-18T14:01:45;-0.80;22.30
3860;DHT22;1945;52.036;8.614;2022-12-18T14:04:19;-0.70;99.90
3860;DHT22;1945;52.036;8.614;2022-12-18T14:06:47;-0.80;99.90
3860;DHT22;1945;52.036;8.614;2022-12-18T14:09:15;-1.10;99.90
3860;DHT22;1945;52.036;8.614;2022-12-18T14:11:46;-1.00;99.90
3860;DHT22;1945;52.036;8.614;2022-12-18T14:14:15;-1.40;99.90
3860;DHT22;1945;52.036;8.614;2022-12-18T14:16:43;-1.60;99.90
3860;DHT22;1945;52.036;8.614;2022-12-18T14:19:14;-1.10;99.90
3860;DHT22;1945;52.036;8.614;2022-12-18T14:21:46;-1.40;99.90
3860;DHT22;1945;52.036;8.614;2022-12-18T14:24:15;-1.10;99.90
3860;DHT22;1945;52.036;8.614;2022-12-18T14:26:43;-0.80;99.90
3860;DHT22;1945;52.036;8.614;2022-12-18T14:29:25;-0.80;99.90
3860;DHT22;1945;52.036;8.614;2022-12-18T14:32:07;-1.40;99.90
3860;DHT22;1945;52.036;8.614;2022-12-18T14:34:37;-1.00;99.90
3860;DHT22;1945;52.036;8.614;2022-12-18T14:37:04;-1.10;99.90
3860;DHT22;1945;52.036;8.614;2022-12-18T14:39:32;-1.00;52.90
3860;DHT22;1945;52.036;8.614;2022-12-18T14:41:59;-1.60;51.70
3860;DHT22;1945;52.036;8.614;2022-12-18T14:44:26;-1.10;90.60
3860;DHT22;1945;52.036;8.614;2022-12-18T14:46:55;-1.50;89.20
3860;DHT22;1945;52.036;8.614;2022-12-18T14:49:26;-1.20;95.00
3860;DHT22;1945;52.036;8.614;2022-12-18T14:51:56;-1.50;99.90
3860;DHT22;1945;52.036;8.614;2022-12-18T14:54:24;-0.80;97.00
3860;DHT22;1945;52.036;8.614;2022-12-18T14:57:01;-1.40;55.90
3860;DHT22;1945;52.036;8.614;2022-12-18T14:59:29;-0.90;82.50
3860;DHT22;1945;52.036;8.614;2022-12-18T15:02:01;-1.40;51.40
3860;DHT22;1945;52.036;8.614;2022-12-18T15:04:31;-0.80;1.00
3860;DHT22;1945;52.036;8.614;2022-12-18T15:07:09;-1.80;1.00
3860;DHT22;1945;52.036;8.614;2022-12-18T15:09:38;-1.80;1.00
3860;DHT22;1945;52.036;8.614;2022-12-18T15:12:15;-1.40;57.80
3860;DHT22;1945;52.036;8.614;2022-12-18T15:14:46;-1.40;69.30
3860;DHT22;1945;52.036;8.614;2022-12-18T15:17:18;-1.90;38.60
3860;DHT22;1945;52.036;8.614;2022-12-18T15:19:47;-0.90;21.20
3860;DHT22;1945;52.036;8.614;2022-12-18T15:22:25;-0.90;46.50
3860;DHT22;1945;52.036;8.614;2022-12-18T15:24:52;-1.40;1.80
3860;DHT22;1945;52.036;8.614;2022-12-18T15:27:25;-1.50;2.40
3860;DHT22;1945;52.036;8.614;2022-12-18T15:30:16;-0.90;1.00
3860;DHT22;1945;52.036;8.614;2022-12-18T15:32:43;-1.40;1.00
3860;DHT22;1945;52.036;8.614;2022-12-18T15:35:14;-1.90;40.00
3860;DHT22;1945;52.036;8.614;2022-12-18T15:37:43;-1.60;1.00
3860;DHT22;1945;52.036;8.614;2022-12-18T15:40:13;-1.90;4.00
3860;DHT22;1945;52.036;8.614;2022-12-18T15:42:40;-1.10;1.00
3860;DHT22;1945;52.036;8.614;2022-12-18T15:45:25;-1.40;30.80
3860;DHT22;1945;52.036;8.614;2022-12-18T15:47:52;-1.40;1.00
3860;DHT22;1945;52.036;8.614;2022-12-18T15:50:19;-1.10;1.00
3860;DHT22;1945;52.036;8.614;2022-12-18T15:52:49;-0.90;1.00
3860;DHT22;1945;52.036;8.614;2022-12-18T15:55:18;-1.10;1.00
3860;DHT22;1945;52.036;8.614;2022-12-18T15:58:03;-1.20;1.00
3860;DHT22;1945;52.036;8.614;2022-12-18T16:00:30;-1.10;1.00
3860;DHT22;1945;52.036;8.614;2022-12-18T16:02:57;-0.90;30.50
3860;DHT22;1945;52.036;8.614;2022-12-18T16:05:26;-1.20;1.00
3860;DHT22;1945;52.036;8.614;2022-12-18T16:07:54;-0.80;36.50
3860;DHT22;1945;52.036;8.614;2022-12-18T16:10:21;-0.70;16.80
3860;DHT22;1945;52.036;8.614;2022-12-18T16:12:49;-0.70;13.20
3860;DHT22;1945;52.036;8.614;2022-12-18T16:15:16;-0.80;1.00
3860;DHT22;1945;52.036;8.614;2022-12-18T16:17:44;-1.30;31.00
3860;DHT22;1945;52.036;8.614;2022-12-18T16:20:12;-1.30;99.90
3860;DHT22;1945;52.036;8.614;2022-12-18T16:22:41;-0.70;27.00
3860;DHT22;1945;52.036;8.614;2022-12-18T16:25:16;-0.90;29.40
3860;DHT22;1945;52.036;8.614;2022-12-18T16:27:43;-0.70;1.00
3860;DHT22;1945;52.036;8.614;2022-12-18T16:30:13;-1.50;1.00
3860;DHT22;1945;52.036;8.614;2022-12-18T16:32:40;-1.00;1.00